createdAt,value
2023-01-08T00:00:57.175Z,10.80
2023-01-08T00:01:57.532Z,10.80
2023-01-08T00:02:57.872Z,10.77
2023-01-08T00:03:58.124Z,10.78
2023-01-08T00:04:58.316Z,10.80
2023-01-08T00:05:58.610Z,10.74
2023-01-08T00:06:59.011Z,10.74
2023-01-08T00:07:59.183Z,10.71
2023-01-08T00:08:59.584Z,10.68
2023-01-08T00:09:59.791Z,10.66
2023-01-08T00:11:00.086Z,10.60
2023-01-08T00:12:00.496Z,10.62
2023-01-08T00:13:00.723Z,10.58
2023-01-08T00:14:00.985Z,10.56
2023-01-08T00:15:01.420Z,10.55
2023-01-08T00:16:01.508Z,10.58
2023-01-08T00:17:01.795Z,10.56
2023-01-08T00:18:02.149Z,10.53
2023-01-08T00:19:02.356Z,10.53
2023-01-08T00:20:02.711Z,10.53
2023-01-08T00:21:03.010Z,10.53
2023-01-08T00:22:03.308Z,10.47
2023-01-08T00:23:03.595Z,10.46
2023-01-08T00:24:03.830Z,10.44
2023-01-08T00:25:04.230Z,10.42
2023-01-08T00:26:04.474Z,10.43
2023-01-08T00:27:04.766Z,10.42
2023-01-08T00:28:05.082Z,10.39
2023-01-08T00:29:05.400Z,10.36
2023-01-08T00:30:05.751Z,10.37
2023-01-08T00:31:06.132Z,10.39
2023-01-08T00:32:06.375Z,10.36
2023-01-08T00:33:06.616Z,10.39
2023-01-08T00:34:06.965Z,10.36
2023-01-08T00:35:07.239Z,10.37
2023-01-08T00:36:07.609Z,10.34
2023-01-08T00:37:07.851Z,10.37
2023-01-08T00:38:08.225Z,10.36
2023-01-08T00:39:08.488Z,10.39
2023-01-08T00:40:08.799Z,10.42
2023-01-08T00:41:09.122Z,10.42
2023-01-08T00:42:09.422Z,10.43
2023-01-08T00:43:09.776Z,10.44
2023-01-08T00:44:10.073Z,10.44
2023-01-08T00:45:10.377Z,10.43
2023-01-08T00:46:10.756Z,10.46
2023-01-08T00:47:11.001Z,10.44
2023-01-08T00:48:11.388Z,10.37
2023-01-08T00:49:11.611Z,10.34
2023-01-08T00:50:11.945Z,10.36
2023-01-08T00:51:12.129Z,10.40
2023-01-08T00:52:12.390Z,10.42
2023-01-08T00:53:12.797Z,10.46
2023-01-08T00:54:13.005Z,10.44
2023-01-08T00:55:13.277Z,10.47
2023-01-08T00:56:13.641Z,10.40
2023-01-08T00:57:13.774Z,10.39
2023-01-08T00:58:14.192Z,10.39
2023-01-08T00:59:14.448Z,10.36
2023-01-08T01:00:14.708Z,10.34
2023-01-08T01:01:15.053Z,10.39
2023-01-08T01:02:15.257Z,10.37
2023-01-08T01:03:15.428Z,10.34
2023-01-08T01:04:15.761Z,10.36
2023-01-08T01:05:15.982Z,10.37
2023-01-08T01:06:16.375Z,10.37
2023-01-08T01:07:16.579Z,10.40
2023-01-08T01:08:16.875Z,10.36
2023-01-08T01:09:17.182Z,10.37
2023-01-08T01:10:17.412Z,10.34
2023-01-08T01:11:17.754Z,10.39
2023-01-08T01:12:17.963Z,10.36
2023-01-08T01:13:18.270Z,10.34
2023-01-08T01:14:18.495Z,10.32
2023-01-08T01:15:18.841Z,10.33
2023-01-08T01:16:19.283Z,10.32
2023-01-08T01:17:19.439Z,10.36
2023-01-08T01:18:19.691Z,10.37
2023-01-08T01:19:20.022Z,10.36
2023-01-08T01:20:20.365Z,10.40
2023-01-08T01:21:21.070Z,10.40
2023-01-08T01:22:20.873Z,10.40
2023-01-08T01:23:21.179Z,10.43
2023-01-08T01:24:22.327Z,10.39
2023-01-08T01:25:21.776Z,10.36
2023-01-08T01:26:22.076Z,10.37
2023-01-08T01:27:22.362Z,10.34
2023-01-08T01:28:22.740Z,10.36
2023-01-08T01:29:23.036Z,10.36
2023-01-08T01:30:23.338Z,10.39
2023-01-08T01:31:23.614Z,10.37
2023-01-08T01:32:23.966Z,10.36
2023-01-08T01:33:24.182Z,10.34
2023-01-08T01:34:24.470Z,10.33
2023-01-08T01:35:24.834Z,10.34
2023-01-08T01:36:25.108Z,10.28
2023-01-08T01:37:25.365Z,10.22
2023-01-08T01:38:25.700Z,10.24
2023-01-08T01:39:26.007Z,10.24
2023-01-08T01:40:26.330Z,10.24
2023-01-08T01:41:26.628Z,10.24
2023-01-08T01:42:26.936Z,10.24
2023-01-08T01:43:27.295Z,10.24
2023-01-08T01:44:27.480Z,10.26
2023-01-08T01:45:27.837Z,10.22
2023-01-08T01:46:28.121Z,10.21
2023-01-08T01:47:28.332Z,10.14
2023-01-08T01:48:28.630Z,10.14
2023-01-08T01:49:28.900Z,10.14
2023-01-08T01:50:29.213Z,10.07
2023-01-08T01:51:29.471Z,10.09
2023-01-08T01:52:29.782Z,10.12
2023-01-08T01:53:30.114Z,10.12
2023-01-08T01:54:30.333Z,10.12
2023-01-08T01:55:30.645Z,10.10
2023-01-08T01:56:30.975Z,10.10
2023-01-08T01:57:31.305Z,10.10
2023-01-08T01:58:31.587Z,10.10
2023-01-08T01:59:31.914Z,10.09
2023-01-08T02:00:32.204Z,10.12
2023-01-08T02:01:32.603Z,10.04
2023-01-08T02:02:32.894Z,10.04
2023-01-08T02:03:33.014Z,10.04
2023-01-08T02:04:33.327Z,10.09
2023-01-08T02:05:33.595Z,10.12
2023-01-08T02:06:33.864Z,10.09
2023-01-08T02:07:34.166Z,10.12
2023-01-08T02:08:34.514Z,10.10
2023-01-08T02:09:34.814Z,10.07
2023-01-08T02:10:35.148Z,10.10
2023-01-08T02:11:35.431Z,10.06
2023-01-08T02:12:36.145Z,10.07
2023-01-08T02:13:35.989Z,10.09
2023-01-08T02:14:37.302Z,10.03
2023-01-08T02:15:36.551Z,10.01
2023-01-08T02:16:36.908Z,10.03
2023-01-08T02:17:37.158Z,10.04
2023-01-08T02:18:37.364Z,10.03
2023-01-08T02:19:37.648Z,10.04
2023-01-08T02:20:37.959Z,10.03
2023-01-08T02:21:38.258Z,10.04
2023-01-08T02:22:38.636Z,10.00
2023-01-08T02:23:38.824Z,9.97
2023-01-08T02:24:39.188Z,9.97
2023-01-08T02:25:39.336Z,10.00
2023-01-08T02:26:39.698Z,9.97
2023-01-08T02:27:40.051Z,9.96
2023-01-08T02:28:40.334Z,9.96
2023-01-08T02:29:40.501Z,9.97
2023-01-08T02:30:40.879Z,9.99
2023-01-08T02:31:41.103Z,9.97
2023-01-08T02:32:41.516Z,9.99
2023-01-08T02:33:41.731Z,10.01
2023-01-08T02:34:42.063Z,9.96
2023-01-08T02:35:42.296Z,9.94
2023-01-08T02:36:42.578Z,9.96
2023-01-08T02:37:42.897Z,9.94
2023-01-08T02:38:43.158Z,9.97
2023-01-08T02:39:43.513Z,10.03
2023-01-08T02:40:43.836Z,10.04
2023-01-08T02:41:44.144Z,10.06
2023-01-08T02:42:44.385Z,10.04
2023-01-08T02:43:44.753Z,10.07
2023-01-08T02:44:45.013Z,10.09
2023-01-08T02:45:45.362Z,10.06
2023-01-08T02:46:45.752Z,10.06
2023-01-08T02:47:46.024Z,10.07
2023-01-08T02:48:46.222Z,10.10
2023-01-08T02:49:46.513Z,10.14
2023-01-08T02:50:46.813Z,10.07
2023-01-08T02:51:47.119Z,10.09
2023-01-08T02:52:47.370Z,10.09
2023-01-08T02:53:47.759Z,10.07
2023-01-08T02:54:48.503Z,10.07
2023-01-08T02:55:48.368Z,10.06
2023-01-08T02:56:48.609Z,10.04
2023-01-08T02:57:48.951Z,10.06
2023-01-08T02:58:49.422Z,10.07
2023-01-08T02:59:49.951Z,10.07
2023-01-08T03:00:49.850Z,10.10
2023-01-08T03:01:50.216Z,10.09
2023-01-08T03:02:50.729Z,10.09
2023-01-08T03:03:50.625Z,10.06
2023-01-08T03:04:50.913Z,10.04
2023-01-08T03:05:51.243Z,10.04
2023-01-08T03:06:51.599Z,10.04
2023-01-08T03:07:51.837Z,10.04
2023-01-08T03:08:52.151Z,10.03
2023-01-08T03:09:52.458Z,10.03
2023-01-08T03:10:52.746Z,10.06
2023-01-08T03:11:53.040Z,10.07
2023-01-08T03:12:53.410Z,10.07
2023-01-08T03:13:53.801Z,10.09
2023-01-08T03:14:54.067Z,10.07
2023-01-08T03:15:54.224Z,10.07
2023-01-08T03:16:54.620Z,10.01
2023-01-08T03:17:54.809Z,10.03
2023-01-08T03:18:55.135Z,10.04
2023-01-08T03:19:55.416Z,10.00
2023-01-08T03:20:55.757Z,10.03
2023-01-08T03:21:56.083Z,10.06
2023-01-08T03:22:56.390Z,10.03
2023-01-08T03:23:56.718Z,10.06
2023-01-08T03:24:57.053Z,10.01
2023-01-08T03:25:57.376Z,9.94
2023-01-08T03:26:57.722Z,9.89
2023-01-08T03:27:58.008Z,9.91
2023-01-08T03:28:58.341Z,9.89
2023-01-08T03:29:58.657Z,9.89
2023-01-08T03:30:58.999Z,9.89
2023-01-08T03:31:59.248Z,9.82
2023-01-08T03:32:59.465Z,9.85
2023-01-08T03:33:59.717Z,9.83
2023-01-08T03:35:00.037Z,9.76
2023-01-08T03:36:00.326Z,9.71
2023-01-08T03:37:00.677Z,9.73
2023-01-08T03:38:00.962Z,9.70
2023-01-08T03:39:01.339Z,9.64
2023-01-08T03:40:01.636Z,9.67
2023-01-08T03:41:01.965Z,9.68
2023-01-08T03:42:02.277Z,9.67
2023-01-08T03:43:02.590Z,9.70
2023-01-08T03:44:02.905Z,9.73
2023-01-08T03:45:03.203Z,9.78
2023-01-08T03:46:03.644Z,9.81
2023-01-08T03:47:03.800Z,9.81
2023-01-08T03:48:04.122Z,9.79
2023-01-08T03:49:04.347Z,9.78
2023-01-08T03:50:04.670Z,9.79
2023-01-08T03:51:05.027Z,9.76
2023-01-08T03:52:05.195Z,9.75
2023-01-08T03:53:05.443Z,9.66
2023-01-08T03:54:05.791Z,9.70
2023-01-08T03:55:06.104Z,9.70
2023-01-08T03:56:06.406Z,9.70
2023-01-08T03:57:06.726Z,9.71
2023-01-08T03:58:07.017Z,9.73
2023-01-08T03:59:07.338Z,9.68
2023-01-08T04:00:07.760Z,9.71
2023-01-08T04:01:08.088Z,9.71
2023-01-08T04:02:08.401Z,9.71
2023-01-08T04:03:08.526Z,9.73
2023-01-08T04:04:08.975Z,9.70
2023-01-08T04:05:09.153Z,9.68
2023-01-08T04:06:09.416Z,9.67
2023-01-08T04:07:09.758Z,9.64
2023-01-08T04:08:10.110Z,9.66
2023-01-08T04:09:10.395Z,9.66
2023-01-08T04:10:10.713Z,9.67
2023-01-08T04:11:11.020Z,9.64
2023-01-08T04:12:11.334Z,9.66
2023-01-08T04:13:11.640Z,9.63
2023-01-08T04:14:11.796Z,9.67
2023-01-08T04:15:12.172Z,9.66
2023-01-08T04:16:12.454Z,9.68
2023-01-08T04:17:12.638Z,9.68
2023-01-08T04:18:12.974Z,9.67
2023-01-08T04:19:13.239Z,9.63
2023-01-08T04:20:13.533Z,9.60
2023-01-08T04:21:13.827Z,9.58
2023-01-08T04:22:14.100Z,9.56
2023-01-08T04:23:14.476Z,9.56
2023-01-08T04:24:14.665Z,9.53
2023-01-08T04:25:15.363Z,9.53
2023-01-08T04:26:15.271Z,9.56
2023-01-08T04:27:15.549Z,9.53
2023-01-08T04:28:15.920Z,9.56
2023-01-08T04:29:16.204Z,9.52
2023-01-08T04:30:16.538Z,9.56
2023-01-08T04:31:17.132Z,9.52
2023-01-08T04:32:17.143Z,9.53
2023-01-08T04:33:17.383Z,9.53
2023-01-08T04:34:17.670Z,9.50
2023-01-08T04:35:17.991Z,9.45
2023-01-08T04:36:18.264Z,9.45
2023-01-08T04:37:18.656Z,9.42
2023-01-08T04:38:18.963Z,9.38
2023-01-08T04:39:19.259Z,9.38
2023-01-08T04:40:19.483Z,9.42
2023-01-08T04:41:19.822Z,9.39
2023-01-08T04:42:20.019Z,9.40
2023-01-08T04:43:20.389Z,9.42
2023-01-08T04:44:20.658Z,9.42
2023-01-08T04:45:21.108Z,9.40
2023-01-08T04:46:21.381Z,9.43
2023-01-08T04:47:21.572Z,9.42
2023-01-08T04:48:21.736Z,9.42
2023-01-08T04:49:22.120Z,9.40
2023-01-08T04:50:22.271Z,9.39
2023-01-08T04:51:22.601Z,9.39
2023-01-08T04:52:22.879Z,9.35
2023-01-08T04:53:23.263Z,9.35
2023-01-08T04:54:23.436Z,9.30
2023-01-08T04:55:23.782Z,9.24
2023-01-08T04:56:24.030Z,9.23
2023-01-08T04:57:24.342Z,9.20
2023-01-08T04:58:24.672Z,9.20
2023-01-08T04:59:24.843Z,9.16
2023-01-08T05:00:25.147Z,9.13
2023-01-08T05:01:25.471Z,9.13
2023-01-08T05:02:25.869Z,9.15
2023-01-08T05:03:26.074Z,9.15
2023-01-08T05:04:26.232Z,9.16
2023-01-08T05:05:26.588Z,9.16
2023-01-08T05:06:26.739Z,9.13
2023-01-08T05:07:27.121Z,9.15
2023-01-08T05:08:27.418Z,9.12
2023-01-08T05:09:27.743Z,9.15
2023-01-08T05:10:28.022Z,9.12
2023-01-08T05:11:28.404Z,9.13
2023-01-08T05:12:28.589Z,9.10
2023-01-08T05:13:28.901Z,9.12
2023-01-08T05:14:29.226Z,9.13
2023-01-08T05:15:29.575Z,9.13
2023-01-08T05:16:29.808Z,9.10
2023-01-08T05:17:30.161Z,9.06
2023-01-08T05:18:30.446Z,9.06
2023-01-08T05:19:30.749Z,9.02
2023-01-08T05:20:31.052Z,8.99
2023-01-08T05:21:31.360Z,8.99
2023-01-08T05:22:31.645Z,8.97
2023-01-08T05:23:31.978Z,8.99
2023-01-08T05:24:32.683Z,8.96
2023-01-08T05:25:32.543Z,8.99
2023-01-08T05:26:32.805Z,8.91
2023-01-08T05:27:33.135Z,8.91
2023-01-08T05:28:33.448Z,8.88
2023-01-08T05:29:33.841Z,8.93
2023-01-08T05:30:34.161Z,8.90
2023-01-08T05:31:34.402Z,8.88
2023-01-08T05:32:34.601Z,8.87
2023-01-08T05:33:34.889Z,8.81
2023-01-08T05:34:35.190Z,8.79
2023-01-08T05:35:35.641Z,8.78
2023-01-08T05:36:35.852Z,8.79
2023-01-08T05:37:36.152Z,8.78
2023-01-08T05:38:36.451Z,8.79
2023-01-08T05:39:36.795Z,8.75
2023-01-08T05:40:37.144Z,8.73
2023-01-08T05:41:37.445Z,8.71
2023-01-08T05:42:37.740Z,8.71
2023-01-08T05:43:38.123Z,8.72
2023-01-08T05:44:38.378Z,8.71
2023-01-08T05:45:38.749Z,8.75
2023-01-08T05:46:39.105Z,8.75
2023-01-08T05:47:39.405Z,8.71
2023-01-08T05:48:39.661Z,8.69
2023-01-08T05:49:39.921Z,8.66
2023-01-08T05:50:40.348Z,8.65
2023-01-08T05:51:40.548Z,8.66
2023-01-08T05:52:40.806Z,8.65
2023-01-08T05:53:41.172Z,8.69
2023-01-08T05:54:41.469Z,8.69
2023-01-08T05:55:41.885Z,8.69
2023-01-08T05:56:42.080Z,8.68
2023-01-08T05:57:42.387Z,8.71
2023-01-08T05:58:42.673Z,8.71
2023-01-08T05:59:43.077Z,8.69
2023-01-08T06:00:43.252Z,8.71
2023-01-08T06:01:43.630Z,8.69
2023-01-08T06:02:43.825Z,8.68
2023-01-08T06:03:44.163Z,8.73
2023-01-08T06:04:44.434Z,8.75
2023-01-08T06:05:44.745Z,8.75
2023-01-08T06:06:45.058Z,8.79
2023-01-08T06:07:45.361Z,8.79
2023-01-08T06:08:45.671Z,8.79
2023-01-08T06:09:45.965Z,8.78
2023-01-08T06:10:46.296Z,8.72
2023-01-08T06:11:46.628Z,8.76
2023-01-08T06:12:46.934Z,8.78
2023-01-08T06:13:47.225Z,8.76
2023-01-08T06:14:47.587Z,8.76
2023-01-08T06:15:47.908Z,8.75
2023-01-08T06:16:48.153Z,8.69
2023-01-08T06:17:48.464Z,8.68
2023-01-08T06:18:48.630Z,8.72
2023-01-08T06:19:48.984Z,8.71
2023-01-08T06:20:49.198Z,8.68
2023-01-08T06:21:49.453Z,8.73
2023-01-08T06:22:49.741Z,8.72
2023-01-08T06:23:50.049Z,8.69
2023-01-08T06:24:50.374Z,8.73
2023-01-08T06:25:50.731Z,8.78
2023-01-08T06:26:50.962Z,8.76
2023-01-08T06:27:51.150Z,8.75
2023-01-08T06:28:51.477Z,8.73
2023-01-08T06:29:51.701Z,8.73
2023-01-08T06:30:52.063Z,8.71
2023-01-08T06:31:52.291Z,8.73
2023-01-08T06:32:52.483Z,8.71
2023-01-08T06:33:52.784Z,8.72
2023-01-08T06:34:53.906Z,8.73
2023-01-08T06:35:53.476Z,8.75
2023-01-08T06:36:53.688Z,8.76
2023-01-08T06:37:53.961Z,8.75
2023-01-08T06:38:54.278Z,8.73
2023-01-08T06:39:54.593Z,8.71
2023-01-08T06:40:54.820Z,8.71
2023-01-08T06:41:55.190Z,8.73
2023-01-08T06:42:55.548Z,8.75
2023-01-08T06:43:55.870Z,8.76
2023-01-08T06:44:56.167Z,8.75
2023-01-08T06:45:56.496Z,8.73
2023-01-08T06:46:56.810Z,8.78
2023-01-08T06:47:57.066Z,8.78
2023-01-08T06:48:57.244Z,8.78
2023-01-08T06:49:57.645Z,8.79
2023-01-08T06:50:57.884Z,8.83
2023-01-08T06:51:58.165Z,8.79
2023-01-08T06:52:58.300Z,8.79
2023-01-08T06:53:58.669Z,8.84
2023-01-08T06:54:58.931Z,8.87
2023-01-08T06:55:59.245Z,8.87
2023-01-08T06:56:59.652Z,8.88
2023-01-08T06:57:59.827Z,8.90
2023-01-08T06:59:00.085Z,8.90
2023-01-08T07:00:00.364Z,8.88
2023-01-08T07:01:00.539Z,8.90
2023-01-08T07:02:01.145Z,8.90
2023-01-08T07:03:01.384Z,8.87
2023-01-08T07:04:01.504Z,8.87
2023-01-08T07:05:01.921Z,8.88
2023-01-08T07:06:02.063Z,8.90
2023-01-08T07:07:02.343Z,8.88
2023-01-08T07:08:02.502Z,8.91
2023-01-08T07:09:02.872Z,8.93
2023-01-08T07:10:03.128Z,8.93
2023-01-08T07:11:03.344Z,8.93
2023-01-08T07:12:03.601Z,8.94
2023-01-08T07:13:03.835Z,8.91
2023-01-08T07:14:04.147Z,8.96
2023-01-08T07:15:04.325Z,8.93
2023-01-08T07:16:04.745Z,8.96
2023-01-08T07:17:04.932Z,8.94
2023-01-08T07:18:05.184Z,8.96
2023-01-08T07:19:05.415Z,8.97
2023-01-08T07:20:05.704Z,8.97
2023-01-08T07:21:05.893Z,8.99
2023-01-08T07:22:06.283Z,9.02
2023-01-08T07:23:06.543Z,9.01
2023-01-08T07:24:06.793Z,9.02
2023-01-08T07:25:07.043Z,9.01
2023-01-08T07:26:07.290Z,9.04
2023-01-08T07:27:07.552Z,9.04
2023-01-08T07:28:07.785Z,9.09
2023-01-08T07:29:08.110Z,9.06
2023-01-08T07:30:12.873Z,9.05
2023-01-08T07:31:09.604Z,9.04
2023-01-08T07:32:08.844Z,9.04
2023-01-08T07:33:09.114Z,9.05
2023-01-08T07:34:09.448Z,9.04
2023-01-08T07:35:09.720Z,9.09
2023-01-08T07:36:09.955Z,9.09
2023-01-08T07:37:10.181Z,9.06
2023-01-08T07:38:10.436Z,9.01
2023-01-08T07:39:10.688Z,9.04
2023-01-08T07:40:10.979Z,9.05
2023-01-08T07:41:11.208Z,9.02
2023-01-08T07:42:11.460Z,9.05
2023-01-08T07:43:11.740Z,9.05
2023-01-08T07:44:11.966Z,9.05
2023-01-08T07:45:12.192Z,9.04
2023-01-08T07:46:13.968Z,9.06
2023-01-08T07:47:12.750Z,9.10
2023-01-08T07:48:14.011Z,9.12
2023-01-08T07:49:13.405Z,9.12
2023-01-08T07:50:13.772Z,9.10
2023-01-08T07:51:14.026Z,9.12
2023-01-08T07:52:14.336Z,9.13
2023-01-08T07:53:14.535Z,9.10
2023-01-08T07:54:14.854Z,9.06
2023-01-08T07:55:15.019Z,9.10
2023-01-08T07:56:15.438Z,9.10
2023-01-08T07:57:15.605Z,9.06
2023-01-08T07:58:15.859Z,9.06
2023-01-08T07:59:16.142Z,9.05
2023-01-08T08:00:16.441Z,9.10
2023-01-08T08:01:16.720Z,9.12
2023-01-08T08:02:17.103Z,9.09
2023-01-08T08:03:17.262Z,9.12
2023-01-08T08:04:17.484Z,9.12
2023-01-08T08:05:17.727Z,9.12
2023-01-08T08:06:18.010Z,9.10
2023-01-08T08:07:18.272Z,9.10
2023-01-08T08:08:18.525Z,9.13
2023-01-08T08:09:18.783Z,9.13
2023-01-08T08:10:20.049Z,9.15
2023-01-08T08:11:19.293Z,9.13
2023-01-08T08:12:19.555Z,9.13
2023-01-08T08:13:19.784Z,9.15
2023-01-08T08:14:20.056Z,9.13
2023-01-08T08:15:20.349Z,9.13
2023-01-08T08:16:20.673Z,9.13
2023-01-08T08:17:20.898Z,9.13
2023-01-08T08:18:21.167Z,9.15
2023-01-08T08:19:21.480Z,9.13
2023-01-08T08:20:21.716Z,9.16
2023-01-08T08:21:21.966Z,9.21
2023-01-08T08:22:45.757Z,9.20
2023-01-08T08:23:43.588Z,9.20
2023-01-08T08:24:22.869Z,9.13
2023-01-08T08:25:23.059Z,9.15
2023-01-08T08:26:23.304Z,9.12
2023-01-08T08:27:23.533Z,9.13
2023-01-08T08:28:23.771Z,9.13
2023-01-08T08:29:24.027Z,9.18
2023-01-08T08:30:24.335Z,9.18
2023-01-08T08:31:24.611Z,9.20
2023-01-08T08:32:24.865Z,9.16
2023-01-08T08:33:25.113Z,9.18
2023-01-08T08:34:25.382Z,9.23
2023-01-08T08:35:25.679Z,9.24
2023-01-08T08:36:25.944Z,9.24
2023-01-08T08:37:26.139Z,9.27
2023-01-08T08:38:26.415Z,9.27
2023-01-08T08:39:26.671Z,9.23
2023-01-08T08:40:26.959Z,9.15
2023-01-08T08:41:27.236Z,9.18
2023-01-08T08:42:27.518Z,9.18
2023-01-08T08:43:27.752Z,9.21
2023-01-08T08:44:28.025Z,9.21
2023-01-08T08:45:28.276Z,9.23
2023-01-08T08:46:28.606Z,9.18
2023-01-08T08:47:28.832Z,9.20
2023-01-08T08:48:29.088Z,9.21
2023-01-08T08:49:29.297Z,9.20
2023-01-08T08:50:29.577Z,9.21
2023-01-08T08:51:29.859Z,9.21
2023-01-08T08:52:30.054Z,9.21
2023-01-08T08:53:30.316Z,9.21
2023-01-08T08:54:30.634Z,9.24
2023-01-08T08:55:30.902Z,9.18
2023-01-08T08:56:31.125Z,9.21
2023-01-08T08:57:31.416Z,9.21
2023-01-08T08:58:31.649Z,9.21
2023-01-08T08:59:31.914Z,9.21
2023-01-08T09:00:32.175Z,9.18
2023-01-08T09:01:32.560Z,9.16
2023-01-08T09:02:32.875Z,9.18
2023-01-08T09:03:33.021Z,9.15
2023-01-08T09:04:33.270Z,9.15
2023-01-08T09:05:33.510Z,9.18
2023-01-08T09:06:33.883Z,9.13
2023-01-08T09:07:34.216Z,9.15
2023-01-08T09:08:34.456Z,9.18
2023-01-08T09:09:34.693Z,9.23
2023-01-08T09:10:34.971Z,9.21
2023-01-08T09:11:35.238Z,9.21
2023-01-08T09:12:35.557Z,9.18
2023-01-08T09:13:35.746Z,9.24
2023-01-08T09:14:36.035Z,9.27
2023-01-08T09:15:36.224Z,9.25
2023-01-08T09:16:36.593Z,9.24
2023-01-08T09:17:36.812Z,9.27
2023-01-08T09:18:37.124Z,9.28
2023-01-08T09:19:37.304Z,9.30
2023-01-08T09:20:37.817Z,9.32
2023-01-08T09:21:38.297Z,9.31
2023-01-08T09:22:38.234Z,9.31
2023-01-08T09:23:38.477Z,9.38
2023-01-08T09:24:38.792Z,9.35
2023-01-08T09:25:38.986Z,9.39
2023-01-08T09:26:39.290Z,9.40
2023-01-08T09:27:39.519Z,9.40
2023-01-08T09:28:39.784Z,9.39
2023-01-08T09:29:40.054Z,9.40
2023-01-08T09:30:40.338Z,9.42
2023-01-08T09:31:40.633Z,9.38
2023-01-08T09:32:40.927Z,9.38
2023-01-08T09:33:41.220Z,9.38
2023-01-08T09:34:41.463Z,9.38
2023-01-08T09:35:41.707Z,9.38
2023-01-08T09:36:41.982Z,9.35
2023-01-08T09:37:42.210Z,9.39
2023-01-08T09:38:42.476Z,9.43
2023-01-08T09:39:47.986Z,9.43
2023-01-08T09:40:44.075Z,9.45
2023-01-08T09:41:43.401Z,9.48
2023-01-08T09:42:43.657Z,9.49
2023-01-08T09:43:43.846Z,9.48
2023-01-08T09:44:44.220Z,9.50
2023-01-08T09:45:44.398Z,9.50
2023-01-08T09:46:44.707Z,9.52
2023-01-08T09:47:45.045Z,9.50
2023-01-08T09:48:45.269Z,9.49
2023-01-08T09:49:50.415Z,9.52
2023-01-08T09:50:45.877Z,9.48
2023-01-08T09:51:46.071Z,9.50
2023-01-08T09:52:46.312Z,9.56
2023-01-08T09:53:46.542Z,9.53
2023-01-08T09:54:47.766Z,9.53
2023-01-08T09:55:47.969Z,9.53
2023-01-08T09:56:49.251Z,9.57
2023-01-08T09:57:47.863Z,9.57
2023-01-08T09:58:48.392Z,9.61
2023-01-08T09:59:48.684Z,9.60
2023-01-08T10:00:48.672Z,9.61
2023-01-08T10:01:49.009Z,9.61
2023-01-08T10:02:49.259Z,9.63
2023-01-08T10:03:49.475Z,9.61
2023-01-08T10:04:49.760Z,9.61
2023-01-08T10:05:49.952Z,9.61
2023-01-08T10:06:50.197Z,9.64
2023-01-08T10:07:50.417Z,9.64
2023-01-08T10:08:50.679Z,9.68
2023-01-08T10:09:50.923Z,9.71
2023-01-08T10:10:51.224Z,9.64
2023-01-08T10:11:51.435Z,9.61
2023-01-08T10:12:51.701Z,9.67
2023-01-08T10:13:52.057Z,9.66
2023-01-08T10:14:53.698Z,9.66
2023-01-08T10:15:52.566Z,9.63
2023-01-08T10:16:52.902Z,9.63
2023-01-08T10:17:53.103Z,9.66
2023-01-08T10:18:53.405Z,9.67
2023-01-08T10:19:53.603Z,9.66
2023-01-08T10:20:54.758Z,9.67
2023-01-08T10:21:54.525Z,9.61
2023-01-08T10:22:54.505Z,9.61
2023-01-08T10:23:54.801Z,9.63
2023-01-08T10:24:55.021Z,9.66
2023-01-08T10:25:55.496Z,9.70
2023-01-08T10:26:55.628Z,9.67
2023-01-08T10:27:56.072Z,9.70
2023-01-08T10:28:56.113Z,9.66
2023-01-08T10:29:56.475Z,9.71
2023-01-08T10:30:56.938Z,9.70
2023-01-08T10:31:57.135Z,9.70
2023-01-08T10:32:57.269Z,9.68
2023-01-08T10:33:57.513Z,9.71
2023-01-08T10:34:57.835Z,9.73
2023-01-08T10:35:58.095Z,9.75
2023-01-08T10:36:58.339Z,9.75
2023-01-08T10:37:59.679Z,9.73
2023-01-08T10:38:58.907Z,9.75
2023-01-08T10:39:59.092Z,9.82
2023-01-08T10:40:59.420Z,9.83
2023-01-08T10:42:00.591Z,9.85
2023-01-08T10:43:01.149Z,9.86
2023-01-08T10:44:00.435Z,9.91
2023-01-08T10:45:00.652Z,9.86
2023-01-08T10:46:00.796Z,9.88
2023-01-08T10:47:01.172Z,9.88
2023-01-08T10:48:01.368Z,9.91
2023-01-08T10:49:01.790Z,9.93
2023-01-08T10:50:02.014Z,9.93
2023-01-08T10:51:02.367Z,9.96
2023-01-08T10:52:02.510Z,9.99
2023-01-08T10:53:02.886Z,10.06
2023-01-08T10:54:03.031Z,10.10
2023-01-08T10:55:03.347Z,10.12
2023-01-08T10:56:03.632Z,10.17
2023-01-08T10:57:03.860Z,10.22
2023-01-08T10:58:04.860Z,10.22
2023-01-08T10:59:05.489Z,10.26
2023-01-08T11:00:04.626Z,10.30
2023-01-08T11:01:04.937Z,10.32
2023-01-08T11:02:05.285Z,10.40
2023-01-08T11:03:05.585Z,10.40
2023-01-08T11:04:05.792Z,10.43
2023-01-08T11:05:06.097Z,10.44
2023-01-08T11:06:06.338Z,10.52
2023-01-08T11:07:06.619Z,10.53
2023-01-08T11:08:07.001Z,10.56
2023-01-08T11:09:07.156Z,10.66
2023-01-08T11:10:07.763Z,10.68
2023-01-08T11:11:08.450Z,10.76
2023-01-08T11:12:08.062Z,10.81
2023-01-08T11:13:08.444Z,10.88
2023-01-08T11:14:08.588Z,10.91
2023-01-08T11:15:10.475Z,10.92
2023-01-08T11:16:09.263Z,10.89
2023-01-08T11:17:09.495Z,10.88
2023-01-08T11:18:09.605Z,10.84
2023-01-08T11:19:09.883Z,10.89
2023-01-08T11:20:10.262Z,10.88
2023-01-08T11:21:10.496Z,10.95
2023-01-08T11:22:10.822Z,11.01
2023-01-08T11:23:11.109Z,11.03
2023-01-08T11:24:11.486Z,11.03
2023-01-08T11:25:13.989Z,11.01
2023-01-08T11:26:12.103Z,11.06
2023-01-08T11:27:12.362Z,11.03
2023-01-08T11:28:12.619Z,11.10
2023-01-08T11:29:12.903Z,11.03
2023-01-08T11:30:13.125Z,11.02
2023-01-08T11:31:13.579Z,11.13
2023-01-08T11:32:14.146Z,11.11
2023-01-08T11:33:14.092Z,11.20
2023-01-08T11:34:14.430Z,11.25
2023-01-08T11:35:14.992Z,11.29
2023-01-08T11:36:15.106Z,11.28
2023-01-08T11:37:15.234Z,11.24
2023-01-08T11:38:15.523Z,11.17
2023-01-08T11:39:15.827Z,11.14
2023-01-08T11:40:16.047Z,11.14
2023-01-08T11:41:16.281Z,11.17
2023-01-08T11:42:16.560Z,11.17
2023-01-08T11:43:17.131Z,11.07
2023-01-08T11:44:17.090Z,10.99
2023-01-08T11:45:17.409Z,10.99
2023-01-08T11:46:17.651Z,11.01
2023-01-08T11:47:17.907Z,11.06
2023-01-08T11:48:18.183Z,11.03
2023-01-08T11:49:18.492Z,11.01
2023-01-08T11:50:18.885Z,11.07
2023-01-08T11:51:19.371Z,11.06
2023-01-08T11:52:19.550Z,11.09
2023-01-08T11:53:20.740Z,11.07
2023-01-08T11:54:20.152Z,11.10
2023-01-08T11:55:20.611Z,11.07
2023-01-08T11:56:20.701Z,11.13
2023-01-08T11:57:21.306Z,11.11
2023-01-08T11:58:21.232Z,11.06
2023-01-08T11:59:21.824Z,11.02
2023-01-08T12:00:21.763Z,11.01
2023-01-08T12:01:22.228Z,11.01
2023-01-08T12:02:22.514Z,10.96
2023-01-08T12:03:22.802Z,11.01
2023-01-08T12:04:22.931Z,11.01
2023-01-08T12:05:23.108Z,10.99
2023-01-08T12:06:23.237Z,10.95
2023-01-08T12:07:23.558Z,10.96
2023-01-08T12:08:24.135Z,10.98
2023-01-08T12:09:24.200Z,11.02
2023-01-08T12:10:24.326Z,11.09
2023-01-08T12:11:24.615Z,11.10
2023-01-08T12:12:25.029Z,11.13
2023-01-08T12:13:25.276Z,11.16
2023-01-08T12:14:25.697Z,11.20
2023-01-08T12:15:26.942Z,11.20
2023-01-08T12:16:26.202Z,11.25
2023-01-08T12:17:26.447Z,11.25
2023-01-08T12:18:26.492Z,11.20
2023-01-08T12:19:26.733Z,11.17
2023-01-08T12:20:27.109Z,11.11
2023-01-08T12:21:27.343Z,11.11
2023-01-08T12:22:27.616Z,11.09
2023-01-08T12:23:27.863Z,11.07
2023-01-08T12:24:28.143Z,11.07
2023-01-08T12:25:28.364Z,11.11
2023-01-08T12:26:28.594Z,11.11
2023-01-08T12:27:48.666Z,11.09
2023-01-08T12:28:30.166Z,11.16
2023-01-08T12:29:29.471Z,11.17
2023-01-08T12:30:29.728Z,11.21
2023-01-08T12:31:30.017Z,11.25
2023-01-08T12:32:30.251Z,11.27
2023-01-08T12:33:30.531Z,11.21
2023-01-08T12:34:30.770Z,11.20
2023-01-08T12:35:31.095Z,11.25
2023-01-08T12:36:31.324Z,11.27
2023-01-08T12:37:31.931Z,11.31
2023-01-08T12:38:31.875Z,11.35
2023-01-08T12:39:32.123Z,11.35
2023-01-08T12:40:32.465Z,11.32
2023-01-08T12:41:32.791Z,11.34
2023-01-08T12:42:32.917Z,11.36
2023-01-08T12:43:33.816Z,11.35
2023-01-08T12:44:33.594Z,11.38
2023-01-08T12:45:33.955Z,11.38
2023-01-08T12:46:34.009Z,11.34
2023-01-08T12:47:34.421Z,11.34
2023-01-08T12:48:34.509Z,11.31
2023-01-08T12:49:34.762Z,11.32
2023-01-08T12:50:35.006Z,11.24
2023-01-08T12:51:35.237Z,11.27
2023-01-08T12:52:35.532Z,11.28
2023-01-08T12:53:35.752Z,11.28
2023-01-08T12:54:36.007Z,11.32
2023-01-08T12:55:36.245Z,11.34
2023-01-08T12:56:36.538Z,11.34
2023-01-08T12:57:36.765Z,11.29
2023-01-08T12:58:36.997Z,11.28
2023-01-08T12:59:37.270Z,11.20
2023-01-08T13:00:37.502Z,11.20
2023-01-08T13:01:37.898Z,11.20
2023-01-08T13:02:38.220Z,11.17
2023-01-08T13:03:38.403Z,11.14
2023-01-08T13:04:38.658Z,11.19
2023-01-08T13:05:38.905Z,11.17
2023-01-08T13:06:39.141Z,11.17
2023-01-08T13:07:39.407Z,11.19
2023-01-08T13:08:39.763Z,11.21
2023-01-08T13:09:39.949Z,11.19
2023-01-08T13:10:40.229Z,11.21
2023-01-08T13:11:40.470Z,11.20